createdAt,value
2023-05-19T00:00:57.780Z,94.0193
2023-05-19T00:02:00.548Z,92.5004
2023-05-19T00:03:03.431Z,92.0292
2023-05-19T00:04:06.253Z,93.5886
2023-05-19T00:05:08.311Z,92.8605
2023-05-19T00:06:10.403Z,91.4760
2023-05-19T00:07:13.032Z,87.7665
2023-05-19T00:08:15.976Z,88.4459
2023-05-19T00:20:40.034Z,90.7001
2023-05-19T00:21:42.182Z,92.9947
2023-05-19T00:22:44.266Z,93.7087
2023-05-19T00:24:48.281Z,88.5536
2023-05-19T00:25:50.353Z,91.8801
2023-05-19T00:26:52.473Z,89.6122
2023-05-19T00:27:54.537Z,90.1568
2023-05-19T00:28:56.621Z,93.2305
2023-05-19T00:29:59.513Z,93.7979
2023-05-19T00:31:02.804Z,93.8519
2023-05-19T00:34:06.631Z,87.9663
2023-05-19T00:41:19.520Z,93.2398
2023-05-19T00:42:22.229Z,90.2761
2023-05-19T00:43:24.860Z,91.8749
2023-05-19T00:44:28.157Z,91.1234
2023-05-19T00:47:42.720Z,94.2192
2023-05-19T00:55:51.497Z,89.8148
2023-05-19T00:56:53.568Z,90.6998
2023-05-19T00:57:55.649Z,91.1660
2023-05-19T00:58:58.434Z,89.2561
2023-05-19T01:00:00.603Z,88.4900
2023-05-19T01:01:02.722Z,88.4192
2023-05-19T01:02:04.785Z,90.2479
2023-05-19T01:04:08.907Z,91.4675
2023-05-19T01:05:11.033Z,92.9631
2023-05-19T01:06:13.136Z,94.3047
2023-05-19T01:07:15.211Z,94.8435
2023-05-19T01:08:17.304Z,95.0973
2023-05-19T01:09:19.390Z,95.2922
2023-05-19T01:10:22.069Z,95.2292
2023-05-19T01:11:24.913Z,94.7836
2023-05-19T01:12:26.953Z,95.3865
2023-05-19T01:13:29.642Z,95.8456
2023-05-19T01:14:31.699Z,96.2353
2023-05-19T01:15:34.488Z,96.4095
2023-05-19T01:16:36.617Z,96.5265
2023-05-19T01:17:39.403Z,96.5892
2023-05-19T01:18:42.107Z,96.7022
2023-05-19T01:19:44.277Z,96.8548
2023-05-19T01:20:46.345Z,96.9563
2023-05-19T01:21:48.416Z,97.0658
2023-05-19T01:22:50.485Z,96.8686
2023-05-19T01:23:53.634Z,96.3103
2023-05-19T01:24:52.840Z,96.4086
2023-05-19T01:25:56.252Z,96.3583
2023-05-19T01:28:00.124Z,96.0489
2023-05-19T01:29:02.897Z,96.2742
2023-05-19T01:30:04.954Z,96.6309
2023-05-19T01:31:07.032Z,96.8960
2023-05-19T01:33:11.720Z,96.2418
2023-05-19T01:34:14.610Z,95.9074
2023-05-19T01:35:16.734Z,95.5193
2023-05-19T01:36:18.817Z,95.7227
2023-05-19T01:37:21.137Z,95.9442
2023-05-19T01:38:23.186Z,96.3097
2023-05-19T01:39:25.283Z,96.5859
2023-05-19T01:41:29.969Z,95.6004
2023-05-19T01:42:32.107Z,94.9761
2023-05-19T01:43:34.216Z,95.0006
2023-05-19T01:44:36.305Z,94.5602
2023-05-19T01:45:38.912Z,95.8358
2023-05-19T01:46:41.023Z,95.1781
2023-05-19T01:47:43.136Z,94.9930
2023-05-19T01:48:45.185Z,95.4801
2023-05-19T01:49:48.408Z,95.9317
2023-05-19T01:50:49.012Z,96.0735
2023-05-19T01:52:50.715Z,96.9371
2023-05-19T01:53:53.675Z,96.8864
2023-05-19T01:54:56.446Z,96.5505
2023-05-19T01:55:58.548Z,96.3644
2023-05-19T01:57:01.234Z,96.4274
2023-05-19T01:58:03.390Z,96.3465
2023-05-19T01:59:05.501Z,96.9650
2023-05-19T02:00:07.549Z,97.1522
2023-05-19T02:01:10.433Z,97.0166
2023-05-19T02:02:13.156Z,96.8765
2023-05-19T02:03:15.952Z,95.7925
2023-05-19T02:04:18.089Z,94.9007
2023-05-19T02:05:20.116Z,95.9381
2023-05-19T02:06:22.917Z,95.9566
2023-05-19T02:07:25.636Z,95.4527
2023-05-19T02:08:27.730Z,95.5578
2023-05-19T02:09:29.795Z,96.0513
2023-05-19T02:10:33.177Z,95.8431
2023-05-19T02:11:33.539Z,95.4171
2023-05-19T02:12:34.565Z,95.6487
2023-05-19T02:13:36.650Z,96.1373
2023-05-19T02:14:39.422Z,96.5246
2023-05-19T02:15:48.614Z,96.4343
2023-05-19T02:22:52.630Z,95.9024
2023-05-19T02:25:55.627Z,95.8803
2023-05-19T02:26:57.694Z,95.8328
2023-05-19T02:27:59.799Z,95.1296
2023-05-19T02:29:01.807Z,95.2401
2023-05-19T02:30:03.876Z,95.9372
2023-05-19T02:31:07.212Z,96.3910
2023-05-19T02:42:24.863Z,94.8878
2023-05-19T02:44:29.587Z,94.6433
2023-05-19T02:45:32.482Z,94.0236
2023-05-19T02:46:34.585Z,93.3359
2023-05-19T02:47:37.314Z,93.0927
2023-05-19T02:48:40.135Z,92.1964
2023-05-19T02:49:43.892Z,91.6213
2023-05-19T02:50:43.732Z,93.6004
2023-05-19T02:51:45.980Z,94.4188
2023-05-19T02:52:48.701Z,94.9813
2023-05-19T02:53:51.499Z,94.9609
2023-05-19T02:54:54.274Z,95.9554
2023-05-19T02:55:57.029Z,95.3432
2023-05-19T02:56:59.068Z,93.9098
2023-05-19T02:58:01.181Z,95.1470
2023-05-19T02:59:03.241Z,94.7973
2023-05-19T03:00:06.044Z,93.4085
2023-05-19T03:01:06.245Z,94.1456
2023-05-19T03:02:08.493Z,94.3126
2023-05-19T03:04:13.294Z,94.8151
2023-05-19T03:05:16.038Z,93.4802
2023-05-19T03:06:18.942Z,94.3632
2023-05-19T03:09:26.019Z,95.8250
2023-05-19T03:10:28.097Z,95.7669
2023-05-19T03:11:31.159Z,95.9339
2023-05-19T03:14:34.674Z,95.9220
2023-05-19T03:16:39.676Z,94.1208
2023-05-19T03:19:43.378Z,93.5021
2023-05-19T03:20:45.471Z,93.4697
2023-05-19T03:21:48.435Z,95.3008
2023-05-19T03:22:48.458Z,95.6944
2023-05-19T03:25:52.912Z,92.9886
2023-05-19T03:30:02.426Z,94.7050
2023-05-19T03:31:02.970Z,94.5935
2023-05-19T03:32:05.066Z,94.5804
2023-05-19T03:39:18.904Z,95.3373
2023-05-19T03:40:21.573Z,95.3131
2023-05-19T03:41:23.645Z,95.1498
2023-05-19T03:42:26.335Z,95.4056
2023-05-19T03:43:29.037Z,95.8140
2023-05-19T03:44:31.891Z,96.0624
2023-05-19T03:45:34.687Z,95.3937
2023-05-19T03:46:37.393Z,95.3496
2023-05-19T03:48:42.159Z,94.0639
2023-05-19T03:49:44.919Z,94.5747
2023-05-19T03:50:47.658Z,94.4042
2023-05-19T03:51:49.746Z,95.0312
2023-05-19T03:52:57.571Z,94.9904
2023-05-19T03:53:54.433Z,95.4588
2023-05-19T03:54:57.064Z,95.4993
2023-05-19T03:55:59.192Z,95.7068
2023-05-19T03:58:03.324Z,95.9197
2023-05-19T03:59:05.465Z,96.0394
2023-05-19T04:01:10.756Z,96.0557
2023-05-19T04:02:12.904Z,96.1812
2023-05-19T04:03:15.185Z,96.0283
2023-05-19T04:05:19.616Z,95.2817
2023-05-19T04:06:21.740Z,95.2794
2023-05-19T04:07:23.857Z,94.9920
2023-05-19T04:08:25.972Z,94.8805
2023-05-19T04:09:28.090Z,95.4085
2023-05-19T04:10:31.115Z,95.6347
2023-05-19T04:18:44.900Z,97.1227
2023-05-19T04:19:47.708Z,97.3339
2023-05-19T04:20:49.877Z,97.1939
2023-05-19T04:21:51.995Z,96.3626
2023-05-19T04:22:54.610Z,96.6091
2023-05-19T04:23:56.698Z,96.9515
2023-05-19T04:24:59.532Z,97.0809
2023-05-19T04:26:02.505Z,96.9884
2023-05-19T04:34:17.067Z,97.2631
2023-05-19T04:35:19.213Z,97.5783
2023-05-19T04:36:21.379Z,97.4000
2023-05-19T04:37:24.059Z,97.7453
2023-05-19T04:38:26.819Z,97.8829
2023-05-19T04:39:28.991Z,97.9006
2023-05-19T04:40:31.384Z,97.5267
2023-05-19T04:41:33.744Z,96.7020
2023-05-19T04:42:38.960Z,96.2571
2023-05-19T04:43:38.816Z,95.5752
2023-05-19T04:44:41.613Z,95.2724
2023-05-19T04:45:44.347Z,95.1295
2023-05-19T04:46:47.387Z,94.6308
2023-05-19T04:48:49.822Z,96.4316
2023-05-19T04:52:56.492Z,95.1704
2023-05-19T04:53:59.261Z,94.4333
2023-05-19T04:55:02.062Z,95.8474
2023-05-19T04:56:04.179Z,95.3272
2023-05-19T04:58:08.920Z,95.8931
2023-05-19T05:02:15.333Z,90.7224
2023-05-19T05:03:18.274Z,91.8255
2023-05-19T05:07:26.398Z,91.4852
2023-05-19T05:14:39.627Z,90.5896
2023-05-19T05:15:39.700Z,87.3668
2023-05-19T05:16:41.868Z,91.0932
2023-05-19T05:17:44.594Z,90.4919
2023-05-19T05:18:46.796Z,90.4569
2023-05-19T05:19:48.936Z,92.1035
2023-05-19T05:20:51.096Z,89.6128
2023-05-19T05:21:53.190Z,92.6054
2023-05-19T05:22:55.276Z,89.5886
2023-05-19T05:23:57.653Z,87.5098
2023-05-19T05:24:59.787Z,90.0965
2023-05-19T05:26:01.878Z,90.2982
2023-05-19T05:27:04.656Z,91.1639
2023-05-19T05:28:07.771Z,90.9489
2023-05-19T05:43:39.354Z,91.1639
2023-05-19T05:44:42.135Z,91.3805
2023-05-19T05:45:44.956Z,90.6026
2023-05-19T05:46:47.068Z,88.2540
2023-05-19T05:47:49.196Z,91.8393
2023-05-19T05:48:51.688Z,92.5957
2023-05-19T05:49:54.422Z,91.3106
2023-05-19T05:50:57.144Z,93.2552
2023-05-19T05:53:02.678Z,91.8080
2023-05-19T05:54:04.771Z,93.3135
2023-05-19T05:55:06.902Z,92.8005
2023-05-19T05:56:09.663Z,91.6441
2023-05-19T05:57:11.817Z,90.9169
2023-05-19T05:58:14.652Z,90.9796
2023-05-19T05:59:16.754Z,91.7736
2023-05-19T06:00:18.825Z,91.0433
2023-05-19T06:01:21.572Z,90.7997
2023-05-19T06:02:23.850Z,91.9965
2023-05-19T06:03:26.097Z,92.0485
2023-05-19T06:05:30.230Z,87.7820
2023-05-19T06:06:32.978Z,88.4638
2023-05-19T06:07:35.110Z,88.6538
2023-05-19T06:08:37.238Z,88.7378
2023-05-19T06:10:00.984Z,89.8376
2023-05-19T06:17:55.487Z,91.0920
2023-05-19T06:18:58.393Z,91.5540
2023-05-19T06:26:11.941Z,89.2108
2023-05-19T06:27:14.683Z,89.7400
2023-05-19T06:28:17.656Z,92.0568
2023-05-19T06:30:19.944Z,90.1313
2023-05-19T06:31:22.921Z,91.0444
2023-05-19T06:33:25.507Z,93.1015
2023-05-19T06:34:25.903Z,93.8905
2023-05-19T06:35:28.025Z,94.2674
2023-05-19T06:37:32.653Z,89.4897
2023-05-19T06:38:35.440Z,89.7645
2023-05-19T06:39:38.130Z,88.6367
2023-05-19T06:40:40.242Z,90.9088
2023-05-19T06:41:43.103Z,90.9807
2023-05-19T06:42:45.209Z,89.8009
2023-05-19T06:43:47.322Z,90.5190
2023-05-19T06:44:50.953Z,92.1455
2023-05-19T06:45:51.316Z,92.4369
2023-05-19T06:48:55.437Z,89.9166
2023-05-19T06:49:58.562Z,88.1381
2023-05-19T06:51:59.781Z,88.4657
2023-05-19T06:53:01.977Z,91.2016
2023-05-19T06:54:04.172Z,88.1360
2023-05-19T06:55:06.514Z,89.0437
2023-05-19T06:56:14.475Z,90.5767
2023-05-19T06:57:33.209Z,91.2161
2023-05-19T07:04:23.645Z,88.4409
2023-05-19T07:05:26.503Z,90.2159
2023-05-19T07:06:28.608Z,86.7698
2023-05-19T07:07:30.689Z,87.7299
2023-05-19T07:08:32.983Z,86.9252
2023-05-19T07:09:36.217Z,86.6669
2023-05-19T07:10:39.186Z,91.3571
2023-05-19T07:11:39.643Z,91.6993
2023-05-19T07:12:41.739Z,88.7603
2023-05-19T07:13:44.167Z,87.4436
2023-05-19T07:14:46.909Z,89.0847
2023-05-19T07:15:49.613Z,91.2764
2023-05-19T07:16:51.910Z,89.9412
2023-05-19T07:17:54.383Z,92.6178
2023-05-19T07:18:55.133Z,87.8122
2023-05-19T07:19:58.131Z,85.4981
2023-05-19T07:27:11.776Z,88.5352
2023-05-19T07:28:12.200Z,89.8933
2023-05-19T07:31:17.629Z,89.3513
2023-05-19T07:32:19.915Z,89.2626
2023-05-19T07:33:21.971Z,88.2498
2023-05-19T07:34:24.330Z,91.2522
2023-05-19T07:35:26.433Z,86.7309
2023-05-19T07:36:29.144Z,90.8872
2023-05-19T07:37:31.905Z,84.2421
2023-05-19T07:38:34.718Z,86.2147
2023-05-19T07:41:41.422Z,90.2330
2023-05-19T07:42:44.557Z,88.8946
2023-05-19T07:44:46.465Z,87.7921
2023-05-19T07:45:48.584Z,89.0899
2023-05-19T07:46:51.026Z,88.7499
2023-05-19T07:47:53.169Z,85.7917
2023-05-19T07:48:56.492Z,84.1554
2023-05-19T07:49:59.212Z,81.8019
2023-05-19T07:51:01.897Z,83.9331
2023-05-19T07:52:04.940Z,85.0093
2023-05-19T07:54:06.742Z,84.8183
2023-05-19T07:55:09.474Z,90.5948
2023-05-19T07:56:11.590Z,89.5824
2023-05-19T07:57:14.298Z,84.8580
2023-05-19T07:58:16.421Z,83.0936
2023-05-19T07:59:19.139Z,85.0331
2023-05-19T08:00:21.240Z,81.6141
2023-05-19T08:01:24.080Z,83.8299
2023-05-19T08:03:28.185Z,87.7658
2023-05-19T08:06:34.286Z,83.6346
2023-05-19T08:07:36.374Z,85.5674
2023-05-19T08:08:39.152Z,83.7786
2023-05-19T08:09:41.831Z,86.6625
2023-05-19T08:10:43.914Z,83.8799
2023-05-19T08:11:45.955Z,79.8120
2023-05-19T08:14:53.055Z,86.9780
2023-05-19T08:15:55.881Z,89.1093
2023-05-19T08:16:58.562Z,83.5302
2023-05-19T08:18:01.359Z,88.3392
2023-05-19T08:19:03.448Z,87.8237
2023-05-19T08:20:06.105Z,88.0994
2023-05-19T08:21:08.752Z,87.4424
2023-05-19T08:22:10.800Z,84.2458
2023-05-19T08:23:12.871Z,81.2646
2023-05-19T08:24:15.558Z,81.0551
2023-05-19T08:25:18.212Z,86.8350
2023-05-19T08:46:04.072Z,92.2706
2023-05-19T08:47:06.277Z,87.7364
2023-05-19T08:48:08.504Z,82.1307
2023-05-19T08:49:10.562Z,83.2897
2023-05-19T08:50:12.707Z,84.7438
2023-05-19T08:51:14.828Z,79.4244
2023-05-19T08:52:16.933Z,77.8859
2023-05-19T08:53:32.539Z,80.9822
2023-05-19T08:59:30.810Z,81.4160
2023-05-19T09:00:33.179Z,80.8542
2023-05-19T09:21:12.728Z,84.0249
2023-05-19T09:22:14.902Z,86.1488
2023-05-19T09:23:17.045Z,87.2627
2023-05-19T09:24:19.070Z,85.7401
2023-05-19T09:25:21.205Z,82.3512
2023-05-19T09:26:23.328Z,77.7574
2023-05-19T09:27:25.455Z,81.8599
2023-05-19T09:28:27.630Z,84.7496
2023-05-19T09:29:29.711Z,89.0635
2023-05-19T09:30:31.804Z,84.6469
2023-05-19T09:31:33.926Z,82.9696
2023-05-19T09:32:36.060Z,87.8840
2023-05-19T09:33:38.168Z,83.3362
2023-05-19T09:34:40.246Z,81.8248
2023-05-19T09:35:42.358Z,77.7999
2023-05-19T09:36:44.588Z,82.0129
2023-05-19T09:37:46.689Z,84.4532
2023-05-19T09:38:48.936Z,85.0788
2023-05-19T09:39:51.082Z,83.0996
2023-05-19T09:40:53.151Z,82.4869
2023-05-19T09:41:55.249Z,79.2074
2023-05-19T09:42:57.404Z,86.6205
2023-05-19T09:43:59.610Z,82.1490
2023-05-19T09:45:01.679Z,82.3603
2023-05-19T09:46:03.933Z,85.5974
2023-05-19T09:47:06.084Z,83.3171
2023-05-19T09:48:08.263Z,84.7018
2023-05-19T09:49:10.328Z,78.3263
2023-05-19T09:50:12.444Z,83.7049
2023-05-19T09:51:14.495Z,77.0127
2023-05-19T09:52:16.537Z,83.8278
2023-05-19T09:53:18.636Z,87.9395
2023-05-19T09:54:20.712Z,85.3026
2023-05-19T09:55:22.772Z,81.4454
2023-05-19T09:56:24.857Z,84.7594
2023-05-19T09:57:26.905Z,80.4918
2023-05-19T09:58:28.967Z,84.2594
2023-05-19T09:59:33.351Z,80.4564
2023-05-19T10:00:33.349Z,84.5065
2023-05-19T10:01:35.659Z,82.4587
2023-05-19T10:02:37.781Z,78.6460
2023-05-19T10:03:39.900Z,77.2256
2023-05-19T10:04:42.008Z,81.1491
2023-05-19T10:05:44.064Z,86.1620
2023-05-19T10:06:46.129Z,82.8664
2023-05-19T10:07:48.256Z,82.2022
2023-05-19T10:08:50.399Z,75.6682
2023-05-19T10:09:52.478Z,81.5433
2023-05-19T10:10:54.602Z,78.1752
2023-05-19T10:11:56.709Z,73.7951
2023-05-19T10:12:58.896Z,80.1870
2023-05-19T10:14:00.937Z,80.5828
2023-05-19T10:15:03.029Z,75.9128
2023-05-19T10:16:05.156Z,74.2205
2023-05-19T10:17:07.359Z,77.4386
2023-05-19T10:18:09.716Z,86.2911
2023-05-19T10:19:11.859Z,79.5270
2023-05-19T10:20:13.938Z,86.2775
2023-05-19T10:21:16.028Z,82.4643
2023-05-19T10:22:18.120Z,81.4865
2023-05-19T10:23:20.289Z,82.6712
2023-05-19T10:24:23.162Z,77.8291
2023-05-19T10:25:25.491Z,83.0676
2023-05-19T10:26:27.601Z,85.8600
2023-05-19T10:27:29.683Z,81.0172
2023-05-19T10:28:31.784Z,76.5443
2023-05-19T10:29:33.912Z,74.9979
2023-05-19T10:30:35.967Z,76.5940
2023-05-19T10:31:38.089Z,75.7804
2023-05-19T10:32:40.313Z,73.6049
2023-05-19T10:33:42.405Z,74.2968
2023-05-19T10:34:44.561Z,81.1243
2023-05-19T10:35:47.255Z,85.4919
2023-05-19T10:36:46.792Z,86.7041
2023-05-19T10:37:48.907Z,83.2027
2023-05-19T10:38:50.928Z,82.1634
2023-05-19T10:39:53.029Z,83.8711
2023-05-19T10:40:55.113Z,84.0359
2023-05-19T10:41:57.203Z,85.9278
2023-05-19T10:42:59.257Z,84.9491
2023-05-19T10:44:01.625Z,83.6254
2023-05-19T10:45:03.744Z,81.8353
2023-05-19T10:46:05.829Z,79.2479
2023-05-19T10:47:07.960Z,82.5334
2023-05-19T10:48:10.140Z,82.0453
2023-05-19T10:49:12.214Z,72.8639
2023-05-19T10:50:14.471Z,71.9688
2023-05-19T10:51:16.759Z,77.6191
2023-05-19T10:52:18.891Z,77.3236
2023-05-19T10:53:20.991Z,82.2110
2023-05-19T10:54:23.174Z,82.9666
2023-05-19T10:55:25.317Z,77.6764
2023-05-19T10:56:28.196Z,82.7304
2023-05-19T10:58:29.358Z,76.9621
2023-05-19T10:59:31.441Z,74.1121
2023-05-19T11:00:33.593Z,76.7698
2023-05-19T11:09:51.212Z,78.7671
2023-05-19T11:10:53.298Z,79.5321
2023-05-19T11:11:55.365Z,73.3812
2023-05-19T11:14:00.075Z,74.4119
2023-05-19T11:15:02.158Z,77.2225
2023-05-19T11:16:04.226Z,82.1470
2023-05-19T11:17:06.429Z,82.1004
2023-05-19T11:18:08.509Z,84.2495
2023-05-19T11:19:10.728Z,76.0725
2023-05-19T11:20:13.014Z,80.2571
2023-05-19T11:21:15.111Z,79.0960
2023-05-19T11:22:17.476Z,76.2816
2023-05-19T11:23:19.661Z,84.7225
2023-05-19T11:24:21.786Z,83.8041
2023-05-19T11:25:23.953Z,84.6731
2023-05-19T11:26:26.061Z,82.6070
2023-05-19T11:27:28.306Z,81.4769
2023-05-19T11:28:30.321Z,77.6262
2023-05-19T11:29:32.867Z,82.8098
2023-05-19T11:30:33.509Z,72.3079
2023-05-19T11:31:35.657Z,70.8978
2023-05-19T11:32:37.797Z,73.9337
2023-05-19T11:33:39.858Z,80.3794
2023-05-19T11:34:41.904Z,75.1172
2023-05-19T11:35:43.960Z,81.4237
2023-05-19T11:36:46.117Z,75.1298
2023-05-19T11:37:48.173Z,79.6479
2023-05-19T11:38:50.234Z,87.2024
2023-05-19T11:39:52.338Z,81.8713
2023-05-19T11:40:54.378Z,81.1992
2023-05-19T11:41:56.457Z,83.7438
2023-05-19T11:42:58.506Z,72.2439
2023-05-19T11:44:00.571Z,78.9480
2023-05-19T11:45:02.591Z,83.9316
2023-05-19T11:46:04.679Z,70.4558
2023-05-19T11:47:06.728Z,72.9339
2023-05-19T11:48:08.906Z,71.3845
2023-05-19T11:49:10.948Z,67.9157
2023-05-19T11:50:13.122Z,78.9394
2023-05-19T11:51:15.153Z,75.2743
2023-05-19T11:52:17.252Z,71.3075
2023-05-19T11:53:19.324Z,73.8243
2023-05-19T11:54:21.392Z,79.0205
2023-05-19T11:55:23.519Z,78.1040
2023-05-19T11:56:25.665Z,80.1213
2023-05-19T11:57:27.725Z,68.9874
2023-05-19T11:59:33.492Z,66.8172
2023-05-19T12:00:34.712Z,76.2455
2023-05-19T12:01:36.794Z,72.9213
2023-05-19T12:02:38.968Z,78.5164
2023-05-19T12:03:41.176Z,68.1441
2023-05-19T12:04:43.322Z,72.0886
2023-05-19T12:05:45.886Z,71.1339
2023-05-19T12:06:45.629Z,74.6732
2023-05-19T12:07:47.644Z,69.9622
2023-05-19T12:08:49.663Z,79.1682
2023-05-19T12:09:51.701Z,77.8361
2023-05-19T12:10:53.669Z,69.1113
2023-05-19T12:11:55.706Z,72.2747
2023-05-19T12:12:57.682Z,69.7694
2023-05-19T12:13:59.690Z,72.7631
2023-05-19T12:15:01.656Z,72.0716
2023-05-19T12:16:03.753Z,77.4111
2023-05-19T12:17:05.792Z,76.5734
2023-05-19T12:18:07.886Z,76.2740
2023-05-19T12:19:09.996Z,75.3209
2023-05-19T12:20:12.121Z,77.9772
2023-05-19T12:21:14.497Z,76.5127
2023-05-19T12:22:16.660Z,75.9044
2023-05-19T12:23:18.654Z,72.1819
2023-05-19T12:24:20.702Z,75.1250
2023-05-19T12:25:22.714Z,72.0817
2023-05-19T12:26:24.749Z,76.2506
2023-05-19T12:27:26.817Z,74.6806
2023-05-19T12:28:28.888Z,72.9277
2023-05-19T12:29:30.929Z,79.8585
2023-05-19T12:30:33.934Z,74.7704
2023-05-19T12:31:34.015Z,76.3982
2023-05-19T12:32:36.174Z,76.2895
2023-05-19T12:33:38.208Z,69.3380
2023-05-19T12:34:40.277Z,71.0905
2023-05-19T12:35:42.350Z,70.7137
2023-05-19T12:36:44.376Z,73.1807
2023-05-19T12:37:46.473Z,73.6270
2023-05-19T12:38:48.534Z,78.1101
2023-05-19T12:39:50.865Z,73.3609
2023-05-19T12:40:52.912Z,73.9123
2023-05-19T12:41:54.911Z,76.9791
2023-05-19T12:42:56.909Z,78.3164
2023-05-19T12:43:58.902Z,75.0219
2023-05-19T12:45:02.297Z,78.2807
2023-05-19T12:46:02.318Z,79.0531
2023-05-19T12:50:10.102Z,81.1255
2023-05-19T12:51:12.348Z,79.6948
2023-05-19T12:52:14.354Z,80.8756
2023-05-19T12:53:16.438Z,79.7495
2023-05-19T12:54:18.403Z,81.2927
2023-05-19T12:55:20.845Z,79.1251
2023-05-19T12:56:22.898Z,69.6052
2023-05-19T12:57:24.993Z,75.6506
2023-05-19T12:58:27.379Z,77.0593
2023-05-19T12:59:38.351Z,82.1634
2023-05-19T13:00:31.796Z,81.5453
2023-05-19T13:01:34.250Z,74.0762
2023-05-19T13:02:36.492Z,67.7929
2023-05-19T13:03:38.760Z,68.6900
2023-05-19T13:04:40.848Z,71.5081
2023-05-19T13:05:42.885Z,78.9359
2023-05-19T13:06:44.987Z,79.2555
2023-05-19T13:07:46.996Z,67.1127
2023-05-19T13:08:49.044Z,75.1807
2023-05-19T13:09:51.097Z,80.6994
2023-05-19T13:10:53.138Z,73.7612
2023-05-19T13:11:55.334Z,75.5693
2023-05-19T13:12:57.372Z,75.8075
2023-05-19T13:13:59.524Z,77.4026
2023-05-19T13:15:01.550Z,73.1173
2023-05-19T13:16:03.650Z,77.3495
2023-05-19T13:17:05.679Z,78.7694
2023-05-19T13:18:07.791Z,79.8709
2023-05-19T13:19:23.877Z,82.6460
2023-05-19T13:20:11.923Z,84.8448
2023-05-19T13:21:14.217Z,76.7290
2023-05-19T13:22:16.254Z,80.2133
2023-05-19T13:23:18.341Z,79.8587
2023-05-19T13:24:20.376Z,82.0448
2023-05-19T13:25:22.524Z,85.3931
2023-05-19T13:26:24.712Z,80.6902
2023-05-19T13:27:26.759Z,87.5032
2023-05-19T13:28:28.917Z,77.9578
2023-05-19T13:29:31.000Z,86.5413
2023-05-19T13:30:33.342Z,87.3610
2023-05-19T13:31:35.989Z,81.7754
2023-05-19T13:32:38.186Z,74.2729
2023-05-19T13:33:40.242Z,74.7952
2023-05-19T13:34:42.459Z,81.0140
2023-05-19T13:35:44.545Z,86.4514
2023-05-19T13:36:46.943Z,75.2132
2023-05-19T13:37:49.089Z,84.3352
2023-05-19T13:38:51.152Z,81.2650
2023-05-19T13:39:53.321Z,84.8378
2023-05-19T13:40:55.381Z,76.8051
2023-05-19T13:41:57.452Z,80.3664
2023-05-19T13:42:59.544Z,76.5188
2023-05-19T13:44:01.631Z,83.2930
2023-05-19T13:45:03.764Z,77.3691
2023-05-19T13:46:05.923Z,78.1098
2023-05-19T13:47:08.105Z,77.8119
2023-05-19T13:48:10.344Z,78.6913
2023-05-19T13:49:12.466Z,75.1652
2023-05-19T13:50:14.520Z,78.0645
2023-05-19T13:51:16.696Z,77.4790
2023-05-19T13:52:18.759Z,77.1264
2023-05-19T13:53:20.915Z,82.1897
2023-05-19T13:54:22.998Z,79.9011
2023-05-19T13:55:25.088Z,75.7487
2023-05-19T13:56:27.253Z,76.8024
2023-05-19T13:57:29.352Z,82.8473
2023-05-19T13:58:31.421Z,87.0764
2023-05-19T13:59:33.519Z,81.8394
2023-05-19T14:00:35.799Z,77.6481
2023-05-19T14:01:40.429Z,84.4777
2023-05-19T14:02:40.946Z,76.4308
2023-05-19T14:03:43.240Z,78.1665
2023-05-19T14:04:45.530Z,81.5521
2023-05-19T14:05:47.661Z,82.7944
2023-05-19T14:06:49.958Z,82.2495
2023-05-19T14:07:52.139Z,83.4318
2023-05-19T14:08:54.262Z,82.6934
2023-05-19T14:09:56.418Z,82.5966
2023-05-19T14:10:58.642Z,81.7421
2023-05-19T14:12:00.855Z,82.1371
2023-05-19T14:20:17.513Z,78.6765
2023-05-19T14:21:19.692Z,84.8854
2023-05-19T14:22:21.895Z,85.6797
2023-05-19T14:23:24.144Z,87.5837
2023-05-19T14:24:26.340Z,79.9627
2023-05-19T14:25:28.567Z,84.9443
2023-05-19T14:26:30.767Z,80.9696
2023-05-19T14:27:33.187Z,76.5972
2023-05-19T14:28:35.523Z,77.8380
2023-05-19T14:29:38.052Z,83.3845
2023-05-19T14:30:40.513Z,88.2229
2023-05-19T14:31:42.728Z,87.6642
2023-05-19T14:32:44.973Z,86.6406
2023-05-19T14:33:47.115Z,84.6977
2023-05-19T14:34:49.306Z,84.0976
2023-05-19T14:35:51.522Z,81.1581
2023-05-19T14:36:53.846Z,78.7728
2023-05-19T14:37:56.106Z,79.9760
2023-05-19T14:38:58.364Z,80.5022
2023-05-19T14:40:00.608Z,80.9562
2023-05-19T14:41:02.924Z,87.4450
2023-05-19T14:42:05.379Z,84.0406
2023-05-19T14:43:07.665Z,82.1514
2023-05-19T14:44:09.999Z,77.3633
2023-05-19T14:46:14.329Z,81.8328
2023-05-19T14:47:16.620Z,79.8723
2023-05-19T14:48:18.862Z,78.2272
2023-05-19T14:49:21.284Z,79.8253
2023-05-19T14:50:23.509Z,77.4705
2023-05-19T14:51:25.778Z,78.0794
2023-05-19T14:52:28.023Z,84.3700
2023-05-19T14:53:30.367Z,88.7952
2023-05-19T14:54:32.568Z,83.6149
2023-05-19T14:55:34.877Z,86.3817
2023-05-19T14:56:37.043Z,77.3566
2023-05-19T14:57:39.338Z,80.6963
2023-05-19T14:58:41.495Z,81.1560
2023-05-19T14:59:43.672Z,85.2817
2023-05-19T15:00:45.907Z,80.2405
2023-05-19T15:01:48.180Z,84.6592
2023-05-19T15:02:50.513Z,82.1075
2023-05-19T15:03:52.821Z,86.3368
2023-05-19T15:04:55.117Z,83.0568
2023-05-19T15:05:57.319Z,84.2047
2023-05-19T15:08:02.271Z,79.0725
2023-05-19T15:09:02.852Z,75.9604
2023-05-19T15:10:05.047Z,76.1372
2023-05-19T15:11:07.247Z,78.4032
2023-05-19T15:12:09.452Z,78.0280
2023-05-19T15:13:11.652Z,75.4982
2023-05-19T15:14:11.865Z,76.1729
2023-05-19T15:15:14.070Z,79.2507
2023-05-19T15:16:17.996Z,84.6039
2023-05-19T15:17:18.625Z,84.7342
2023-05-19T15:18:20.868Z,83.0525
2023-05-19T15:19:23.213Z,78.9340
2023-05-19T15:20:26.964Z,80.5293
2023-05-19T15:21:27.746Z,80.4424
2023-05-19T15:22:30.021Z,86.4992
2023-05-19T15:23:32.350Z,82.2259
2023-05-19T15:24:52.871Z,86.6274
2023-05-19T15:30:43.850Z,86.7013
2023-05-19T15:31:46.661Z,85.8700
2023-05-19T15:32:49.540Z,88.9660
2023-05-19T15:33:52.315Z,86.8413
2023-05-19T15:34:54.474Z,86.8591
2023-05-19T15:35:56.650Z,87.4017
2023-05-19T15:36:59.483Z,84.9242
2023-05-19T15:45:13.129Z,88.0101
2023-05-19T15:50:25.135Z,83.0612
2023-05-19T15:51:28.123Z,88.6436
2023-05-19T15:52:28.324Z,85.0766
2023-05-19T15:53:30.534Z,84.6653
2023-05-19T15:55:36.160Z,84.6775
2023-05-19T15:57:37.719Z,84.8348
2023-05-19T15:58:39.920Z,86.4388
2023-05-19T15:59:42.118Z,79.2567
2023-05-19T16:08:03.255Z,81.3802
2023-05-19T16:09:03.351Z,85.4366
2023-05-19T16:11:06.068Z,85.4095
2023-05-19T16:12:08.837Z,88.9177
2023-05-19T16:13:11.025Z,82.5679
2023-05-19T16:14:13.843Z,83.4402
2023-05-19T16:15:16.220Z,82.5719
2023-05-19T16:16:21.067Z,82.8246
2023-05-19T16:33:55.901Z,83.5962
2023-05-19T16:35:57.406Z,82.2459
2023-05-19T16:37:00.350Z,80.5941
2023-05-19T16:38:03.272Z,77.0170
2023-05-19T16:39:06.179Z,83.5027
2023-05-19T16:40:08.400Z,88.1857
2023-05-19T16:41:11.254Z,89.4718
2023-05-19T16:42:10.599Z,86.8195
2023-05-19T16:43:13.753Z,84.2735
2023-05-19T16:44:15.143Z,84.8151
2023-05-19T16:47:19.862Z,80.2984
2023-05-19T16:48:20.009Z,84.7957
2023-05-19T16:49:22.167Z,83.6870
2023-05-19T16:50:25.029Z,82.3460
2023-05-19T16:55:29.958Z,88.3427
2023-05-19T16:56:32.703Z,88.2272
2023-05-19T16:57:35.452Z,88.2330
2023-05-19T16:58:38.258Z,84.7357
2023-05-19T16:59:41.277Z,88.0103
2023-05-19T17:02:46.647Z,81.7243
2023-05-19T17:06:54.094Z,83.7321
2023-05-19T17:12:03.991Z,86.4051
2023-05-19T17:13:06.210Z,82.0084
2023-05-19T17:14:09.280Z,85.8741
2023-05-19T17:26:34.537Z,86.1251
2023-05-19T17:27:33.841Z,83.4679
2023-05-19T17:28:35.986Z,84.4366
2023-05-19T17:29:38.342Z,82.7551
2023-05-19T17:30:41.127Z,88.4066
2023-05-19T17:31:44.629Z,87.4867
2023-05-19T17:44:09.965Z,83.9046
2023-05-19T17:47:10.749Z,86.9994
2023-05-19T17:49:12.616Z,85.1650
2023-05-19T17:54:22.496Z,89.9848
2023-05-19T17:55:22.634Z,85.9604
2023-05-19T17:58:27.301Z,88.0221
2023-05-19T18:04:34.851Z,85.5885
2023-05-19T18:05:37.851Z,86.0355
2023-05-19T18:10:48.137Z,87.8675
2023-05-19T18:12:50.067Z,84.7731